Time;durP1;ratioP1;P1;durP2;ratioP2;P2;SDS_P1;SDS_P2;PMS_P1;PMS_P2;Temp;Humidity;BMP_temperature;BMP_pressure;BME280_temperature;BME280_humidity;BME280_pressure;Samples;Min_cycle;Max_cycle;Signal;HPM_P1;HPM_P2
2022/01/12 00:00:40;;;;;;;10.20;6.03;;;;;;;;;;5014682;28;20468;-88
2022/01/12 00:03:10;;;;;;;10.27;7.00;;;;;;;;;;5016060;28;20497;-88
2022/01/12 00:05:37;;;;;;;9.17;6.57;;;;;;;;;;5014411;28;20464;-89
2022/01/12 00:08:07;;;;;;;10.20;6.27;;;-1.60;99.90;;;;;;5012862;28;20437;-88
2022/01/12 00:10:35;;;;;;;12.43;6.77;;;;;;;;;;5015756;28;20544;-89
2022/01/12 00:13:02;;;;;;;11.53;6.93;;;;;;;;;;5014888;28;20455;-89
2022/01/12 00:15:29;;;;;;;7.30;5.73;;;;;;;;;;5014205;28;20803;-87
2022/01/12 00:17:56;;;;;;;9.87;6.70;;;;;;;;;;5012728;28;20499;-89
2022/01/12 00:20:23;;;;;;;13.10;7.50;;;;;;;;;;5015421;28;20463;-87
2022/01/12 00:22:52;;;;;;;9.47;6.13;;;;;;;;;;5015639;28;20492;-87
2022/01/12 00:33:33;;;;;;;9.37;6.27;;;;;;;;;;5015016;28;20444;-89
2022/01/12 00:36:01;;;;;;;10.67;6.77;;;;;;;;;;5015318;28;20448;-88
2022/01/12 00:38:30;;;;;;;10.90;5.80;;;;;;;;;;5014883;28;20815;-88
2022/01/12 00:40:58;;;;;;;8.60;5.73;;;-1.80;99.90;;;;;;5015001;28;20445;-87
2022/01/12 00:43:29;;;;;;;8.80;5.67;;;-1.80;99.90;;;;;;5013920;28;20497;-88
2022/01/12 00:45:56;;;;;;;10.40;6.60;;;;;;;;;;5014898;28;20456;-89
2022/01/12 00:48:24;;;;;;;10.60;6.50;;;-1.90;99.90;;;;;;5014787;28;20456;-89
2022/01/12 00:50:51;;;;;;;11.07;5.60;;;;;;;;;;5014761;28;20808;-88
2022/01/12 00:53:18;;;;;;;12.30;7.07;;;;;;;;;;5014769;28;20460;-89
2022/01/12 00:55:45;;;;;;;7.90;6.00;;;;;;;;;;5015029;28;20456;-89
2022/01/12 00:58:14;;;;;;;7.60;5.43;;;;;;;;;;5013818;28;20468;-89
2022/01/12 01:00:41;;;;;;;12.17;7.27;;;;;;;;;;5014832;28;20459;-91
2022/01/12 01:03:09;;;;;;;8.60;5.63;;;;;;;;;;5014825;28;20492;-88
2022/01/12 01:05:36;;;;;;;7.73;5.70;;;;;;;;;;5014745;28;20460;-89
2022/01/12 01:08:04;;;;;;;8.00;5.90;;;;;;;;;;5015278;28;20484;-87
2022/01/12 01:10:44;;;;;;;8.10;5.70;;;;;;;;;;5015939;28;20456;-87
2022/01/12 01:13:13;;;;;;;9.77;6.30;;;;;;;;;;5016145;28;20468;-89
2022/01/12 01:15:57;;;;;;;13.17;6.57;;;;;;;;;;5015533;28;20457;-88
2022/01/12 01:26:40;;;;;;;7.80;6.00;;;;;;;;;;5014623;28;20460;-89
2022/01/12 01:29:07;;;;;;;11.07;5.83;;;;;;;;;;5013577;28;20447;-88
2022/01/12 01:31:37;;;;;;;10.63;6.17;;;-2.30;99.90;;;;;;5014376;28;20478;-88
2022/01/12 01:34:10;;;;;;;14.40;6.33;;;-2.30;99.90;;;;;;5013891;28;20540;-90
2022/01/12 01:36:39;;;;;;;7.53;5.67;;;-2.30;99.90;;;;;;5013868;28;20877;-87
2022/01/12 01:39:07;;;;;;;12.33;5.67;;;-2.30;99.90;;;;;;5012603;28;20448;-89
2022/01/12 01:41:36;;;;;;;7.73;5.90;;;-2.30;99.90;;;;;;5009053;28;20472;-87
2022/01/12 01:44:34;;;;;;;9.23;5.50;;;;;;;;;;5012718;28;20964;-88
2022/01/12 01:55:17;;;;;;;9.00;5.03;;;;;;;;;;5014005;28;20440;-89
2022/01/12 01:57:44;;;;;;;7.73;5.33;;;;;;;;;;5010032;28;20449;-88
2022/01/12 02:00:14;;;;;;;10.63;4.83;;;-2.50;99.90;;;;;;5013988;28;20460;-91
2022/01/12 02:02:45;;;;;;;6.60;5.03;;;;;;;;;;5013621;28;20503;-88
2022/01/12 02:05:13;;;;;;;7.70;5.63;;;;;;;;;;5014196;28;20457;-89
2022/01/12 02:07:40;;;;;;;12.10;5.23;;;;;;;;;;5012021;28;20479;-89
2022/01/12 02:10:07;;;;;;;6.90;5.30;;;;;;;;;;5014153;28;20449;-88
2022/01/12 02:12:34;;;;;;;7.10;4.97;;;;;;;;;;5012986;28;21052;-88
2022/01/12 02:15:02;;;;;;;6.70;4.30;;;;;;;;;;5013642;28;20448;-88
2022/01/12 02:17:34;;;;;;;7.77;5.00;;;;;;;;;;5013929;28;20445;-90
2022/01/12 02:20:25;;;;;;;8.10;5.20;;;-2.60;99.90;;;;;;5014218;28;20453;-88
2022/01/12 02:36:58;;;;;;;7.80;5.20;;;;;;;;;;5014552;28;20851;-87
2022/01/12 02:42:16;;;;;;;7.33;5.43;;;;;;;;;;5013893;28;20487;-89
2022/01/12 02:55:44;;;;;;;7.80;4.93;;;-2.80;99.90;;;;;;5017461;28;20443;-88
2022/01/12 02:58:11;;;;;;;7.57;4.83;;;;;;;;;;5016332;28;20454;-88
2022/01/12 03:01:00;;;;;;;9.37;5.20;;;;;;;;;;5017201;28;20460;-89
2022/01/12 03:03:31;;;;;;;6.00;4.90;;;-2.90;99.90;;;;;;5017269;28;20550;-88
2022/01/12 03:06:00;;;;;;;6.77;4.93;;;;;;;;;;5016608;28;20455;-87
2022/01/12 03:08:28;;;;;;;6.03;4.33;;;-3.00;99.90;;;;;;5016915;28;20480;-89
2022/01/12 03:10:57;;;;;;;7.80;5.30;;;-3.00;99.90;;;;;;5016993;28;20819;-88
2022/01/12 03:13:24;;;;;;;5.30;4.43;;;;;;;;;;5015686;28;20988;-88
2022/01/12 03:15:51;;;;;;;7.37;5.20;;;;;;;;;;5016613;28;20819;-88
2022/01/12 03:18:18;;;;;;;6.77;4.90;;;;;;;;;;5016791;28;20452;-88
2022/01/12 03:20:46;;;;;;;7.00;4.40;;;;;;;;;;5016786;28;20979;-89
2022/01/12 03:23:14;;;;;;;5.60;4.77;;;-3.10;99.90;;;;;;5017019;28;20538;-87
2022/01/12 03:25:41;;;;;;;10.60;5.80;;;;;;;;;;5016773;28;20461;-85
2022/01/12 03:28:10;;;;;;;6.33;4.63;;;-3.20;99.90;;;;;;5014050;28;20449;-88
2022/01/12 03:30:47;;;;;;;7.20;5.70;;;;;;;;;;5016850;28;20963;-87
2022/01/12 03:33:30;;;;;;;14.10;5.47;;;;;;;;;;5013465;28;20456;-88
2022/01/12 03:36:23;;;;;;;7.40;5.13;;;;;;;;;;5016477;28;20552;-90
2022/01/12 03:38:50;;;;;;;6.27;4.07;;;;;;;;;;5016471;28;20449;-89
2022/01/12 03:41:18;;;;;;;6.03;4.70;;;-3.20;99.90;;;;;;5013265;28;20463;-88
2022/01/12 03:43:47;;;;;;;9.93;6.43;;;;;;;;;;5015045;28;20509;-89
2022/01/12 03:46:15;;;;;;;6.57;4.83;;;-3.20;99.90;;;;;;5016436;28;20453;-89
2022/01/12 03:48:42;;;;;;;7.50;5.23;;;;;;;;;;5016334;28;20458;-87
2022/01/12 03:51:09;;;;;;;9.20;5.87;;;;;;;;;;5012428;28;20532;-89
2022/01/12 03:53:36;;;;;;;8.40;5.73;;;;;;;;;;5015944;28;20456;-87
2022/01/12 03:56:04;;;;;;;9.03;5.77;;;;;;;;;;5016099;28;20453;-87
2022/01/12 03:58:31;;;;;;;8.97;5.57;;;;;;;;;;5014825;28;20448;-89
2022/01/12 04:00:59;;;;;;;8.20;5.67;;;-3.20;99.90;;;;;;5016396;28;20473;-87
2022/01/12 04:03:28;;;;;;;8.10;5.37;;;;;;;;;;5016148;28;20567;-87
2022/01/12 04:08:40;;;;;;;8.67;5.77;;;;;;;;;;5016143;28;21055;-92
2022/01/12 04:11:07;;;;;;;7.13;5.53;;;;;;;;;;5016648;28;20449;-87
2022/01/12 04:13:35;;;;;;;8.20;6.70;;;-3.30;99.90;;;;;;5016021;28;20444;-87
2022/01/12 04:16:07;;;;;;;9.60;5.87;;;-3.30;99.90;;;;;;5019441;28;20793;-88
2022/01/12 04:18:34;;;;;;;11.67;6.37;;;;;;;;;;5016365;28;20937;-91
2022/01/12 04:21:03;;;;;;;10.53;6.80;;;;;;;;;;5015552;28;20435;-88
2022/01/12 04:23:31;;;;;;;11.33;6.33;;;;;;;;;;5015748;28;20592;-87
2022/01/12 04:25:59;;;;;;;12.67;7.40;;;-3.30;99.90;;;;;;5015682;28;20449;-88
2022/01/12 04:28:29;;;;;;;9.57;5.70;;;-3.40;99.90;;;;;;5014113;28;20464;-89
2022/01/12 04:30:57;;;;;;;12.30;7.40;;;-3.40;99.90;;;;;;5015348;28;20476;-87
2022/01/12 04:33:25;;;;;;;9.03;6.43;;;-3.50;99.90;;;;;;5012383;28;20452;-89
2022/01/12 04:35:54;;;;;;;12.60;6.67;;;;;;;;;;5014012;28;20456;-87
2022/01/12 04:38:23;;;;;;;12.43;7.40;;;-3.50;99.90;;;;;;5015699;28;20449;-86
2022/01/12 04:40:51;;;;;;;9.03;6.50;;;-3.50;99.90;;;;;;5015571;28;20457;-88
2022/01/12 04:43:18;;;;;;;11.10;6.90;;;-3.60;99.90;;;;;;5014258;28;20492;-87
2022/01/12 04:46:08;;;;;;;10.43;6.70;;;-3.60;99.90;;;;;;5017626;28;21019;-86
2022/01/12 04:48:50;;;;;;;7.83;5.63;;;-3.70;99.90;;;;;;5019183;28;20448;-88
2022/01/12 04:51:17;;;;;;;7.90;6.13;;;;;;;;;;5018496;28;20480;-89
2022/01/12 04:53:45;;;;;;;12.40;6.97;;;;;;;;;;5018642;28;20444;-87
2022/01/12 04:56:12;;;;;;;10.63;6.27;;;;;;;;;;5019095;28;20816;-88
2022/01/12 04:58:39;;;;;;;10.33;6.60;;;;;;;;;;5014148;28;20456;-87
2022/01/12 05:01:09;;;;;;;9.73;6.30;;;;;;;;;;5014966;28;20468;-87
2022/01/12 05:06:42;;;;;;;8.20;5.73;;;;;;;;;;5015115;28;20431;-89
2022/01/12 05:09:29;;;;;;;11.60;6.93;;;-3.70;99.90;;;;;;5015136;28;20464;-87
2022/01/12 05:15:01;;;;;;;11.43;6.90;;;;;;;;;;4967169;28;20495;-87
2022/01/12 05:17:29;;;;;;;10.63;6.60;;;;;;;;;;5014121;28;20448;-88
2022/01/12 05:19:57;;;;;;;10.70;7.10;;;;;;;;;;5014240;28;20448;-87
2022/01/12 05:22:25;;;;;;;9.63;7.40;;;;;;;;;;5014136;28;20451;-90
2022/01/12 05:24:52;;;;;;;8.40;5.50;;;;;;;;;;5014214;28;20465;-89
2022/01/12 05:27:19;;;;;;;12.63;6.67;;;;;;;;;;5013985;28;20441;-89
2022/01/12 05:29:46;;;;;;;9.23;6.00;;;;;;;;;;5013143;28;20468;-87
2022/01/12 05:32:14;;;;;;;11.03;7.10;;;;;;;;;;5014003;28;20445;-89
2022/01/12 05:34:42;;;;;;;12.87;7.37;;;;;;;;;;5013860;28;20507;-88
2022/01/12 05:37:11;;;;;;;10.97;6.23;;;;;;;;;;5013925;28;20460;-87
2022/01/12 05:39:39;;;;;;;11.10;7.40;;;;;;;;;;5013926;28;20448;-87
2022/01/12 05:42:06;;;;;;;12.10;7.23;;;;;;;;;;5013506;28;20457;-87
2022/01/12 05:44:35;;;;;;;11.53;7.47;;;;;;;;;;5012369;28;20984;-90
2022/01/12 05:47:05;;;;;;;10.87;7.63;;;;;;;;;;5013846;28;20487;-87
2022/01/12 05:49:35;;;;;;;9.90;6.77;;;;;;;;;;5010804;28;20832;-90
2022/01/12 05:52:02;;;;;;;9.50;6.63;;;;;;;;;;5013976;28;20463;-87
2022/01/12 05:54:30;;;;;;;10.33;7.60;;;-3.90;99.90;;;;;;5013563;28;20463;-88
2022/01/12 05:56:58;;;;;;;11.83;8.10;;;;;;;;;;5014044;28;21036;-87
2022/01/12 05:59:25;;;;;;;12.47;7.23;;;;;;;;;;5013321;28;20464;-87
2022/01/12 06:01:52;;;;;;;11.20;7.40;;;;;;;;;;5013929;28;20476;-88
2022/01/12 06:04:19;;;;;;;12.63;7.50;;;;;;;;;;5013509;28;20475;-89
2022/01/12 06:06:46;;;;;;;11.90;7.77;;;;;;;;;;5013619;28;20808;-87
2022/01/12 06:09:13;;;;;;;10.40;7.80;;;;;;;;;;5010893;28;20785;-86
2022/01/12 06:11:42;;;;;;;12.60;8.20;;;;;;;;;;5013601;28;20453;-87
2022/01/12 06:14:10;;;;;;;11.27;8.07;;;;;;;;;;5012464;28;20987;-86
2022/01/12 06:16:37;;;;;;;12.60;8.70;;;;;;;;;;5011942;28;20463;-89
2022/01/12 06:19:04;;;;;;;12.20;8.30;;;;;;;;;;5010341;28;20453;-87
2022/01/12 06:21:31;;;;;;;14.70;9.67;;;;;;;;;;5013235;28;20453;-87
2022/01/12 06:23:58;;;;;;;14.50;8.57;;;;;;;;;;5016386;28;20453;-86
2022/01/12 06:26:26;;;;;;;13.93;7.90;;;;;;;;;;5017374;28;20475;-87
2022/01/12 06:29:22;;;;;;;11.93;8.10;;;-4.10;99.90;;;;;;5016460;28;20453;-88
2022/01/12 06:31:53;;;;;;;16.13;8.73;;;-4.10;99.90;;;;;;5017465;28;20463;-87
2022/01/12 06:34:20;;;;;;;17.03;10.20;;;;;;;;;;5017375;28;20489;-90
2022/01/12 06:36:47;;;;;;;16.47;10.50;;;;;;;;;;5017486;28;20793;-86
2022/01/12 06:39:17;;;;;;;11.50;8.80;;;-4.00;99.90;;;;;;5017319;28;20452;-90
2022/01/12 06:41:44;;;;;;;18.77;9.60;;;;;;;;;;5017355;28;20488;-89
2022/01/12 06:44:15;;;;;;;18.60;7.80;;;-3.90;99.90;;;;;;5016243;28;20472;-88
2022/01/12 06:46:43;;;;;;;14.90;8.60;;;;;;;;;;5017319;28;20407;-86
2022/01/12 06:49:11;;;;;;;11.30;7.90;;;;;;;;;;5017976;28;20468;-91
2022/01/12 06:51:38;;;;;;;12.53;8.50;;;;;;;;;;5018495;28;20449;-89
2022/01/12 06:54:05;;;;;;;15.53;9.37;;;;;;;;;;5014135;28;20862;-88
2022/01/12 06:56:33;;;;;;;13.87;9.43;;;;;;;;;;5014041;28;20936;-90
2022/01/12 06:59:00;;;;;;;12.70;8.27;;;;;;;;;;5017295;28;20547;-91
2022/01/12 07:01:28;;;;;;;15.17;9.50;;;-3.90;99.90;;;;;;5019030;28;20473;-89
2022/01/12 07:03:56;;;;;;;14.23;8.43;;;;;;;;;;5015981;28;20456;-86
2022/01/12 07:06:23;;;;;;;44.27;20.07;;;;;;;;;;5023705;28;20452;-89
2022/01/12 07:08:50;;;;;;;33.00;17.10;;;;;;;;;;5025145;28;20423;-89
2022/01/12 07:11:17;;;;;;;21.73;12.30;;;;;;;;;;5028724;28;20453;-87
2022/01/12 07:13:44;;;;;;;32.60;15.80;;;;;;;;;;5028477;28;20512;-87
2022/01/12 07:16:12;;;;;;;18.40;11.70;;;;;;;;;;5030044;28;20448;-92
2022/01/12 07:18:40;;;;;;;15.13;8.80;;;-3.80;99.90;;;;;;5023556;28;20964;-92
2022/01/12 07:21:07;;;;;;;19.00;9.57;;;;;;;;;;5024643;28;20453;-89
2022/01/12 07:23:42;;;;;;;13.80;9.33;;;;;;;;;;5029203;28;20464;-90
2022/01/12 07:26:11;;;;;;;26.27;12.90;;;;;;;;;;5041207;23;20469;-89
2022/01/12 07:28:38;;;;;;;28.20;13.97;;;;;;;;;;5032975;28;20517;-89
2022/01/12 07:31:13;;;;;;;25.23;14.83;;;;;;;;;;5043226;23;20486;-89
2022/01/12 07:33:44;;;;;;;33.83;18.67;;;;;;;;;;5070382;28;20486;-89
2022/01/12 07:36:13;;;;;;;42.00;19.33;;;;;;;;;;5072369;28;20417;-88
2022/01/12 07:38:40;;;;;;;26.17;15.57;;;;;;;;;;5066575;28;20529;-89
2022/01/12 07:41:07;;;;;;;23.20;13.53;;;;;;;;;;5059313;28;20458;-89
2022/01/12 07:43:35;;;;;;;21.83;11.80;;;;;;;;;;5060851;28;20438;-89
2022/01/12 07:46:02;;;;;;;17.60;11.97;;;;;;;;;;5060547;28;20454;-88
2022/01/12 07:48:29;;;;;;;19.67;12.37;;;;;;;;;;5058429;28;20968;-90
2022/01/12 07:50:57;;;;;;;20.67;10.43;;;-3.20;99.90;;;;;;5064981;28;20455;-87
2022/01/12 07:53:48;;;;;;;22.50;12.50;;;-3.10;99.90;;;;;;5069338;22;20469;-89
2022/01/12 07:56:37;;;;;;;15.37;10.73;;;;;;;;;;5023248;22;20513;-88
2022/01/12 07:59:04;;;;;;;13.30;9.10;;;;;;;;;;5067040;28;20459;-90
2022/01/12 08:01:31;;;;;;;19.57;11.70;;;;;;;;;;5062476;28;20439;-90
2022/01/12 08:03:58;;;;;;;20.17;12.33;;;;;;;;;;5057277;28;20454;-92
2022/01/12 08:06:28;;;;;;;14.47;10.67;;;-2.50;99.90;;;;;;5054702;28;20458;-90
2022/01/12 08:08:55;;;;;;;16.53;10.77;;;;;;;;;;5058110;28;20454;-88
2022/01/12 08:11:22;;;;;;;17.30;10.80;;;;;;;;;;5055840;28;20450;-90
2022/01/12 08:13:50;;;;;;;19.43;11.90;;;;;;;;;;5055296;28;20493;-89
2022/01/12 08:16:17;;;;;;;15.60;9.83;;;;;;;;;;5057815;28;20822;-92
2022/01/12 08:18:44;;;;;;;17.07;10.30;;;;;;;;;;5063490;28;20447;-92
2022/01/12 08:21:13;;;;;;;16.60;10.70;;;;;;;;;;5065873;28;20863;-92
2022/01/12 08:23:42;;;;;;;10.67;7.80;;;;;;;;;;5025848;28;20447;-90
2022/01/12 08:26:09;;;;;;;14.90;10.93;;;;;;;;;;5058791;28;20458;-89
2022/01/12 08:28:36;;;;;;;17.73;9.90;;;;;;;;;;5052621;28;20447;-88
2022/01/12 08:31:03;;;;;;;14.27;7.87;;;;;;;;;;5057680;28;20822;-90
2022/01/12 08:33:32;;;;;;;12.90;9.27;;;;;;;;;;5063759;28;20455;-90
2022/01/12 08:36:04;;;;;;;12.77;9.20;;;;;;;;;;5060379;28;20431;-89
2022/01/12 08:38:31;;;;;;;6.63;4.30;;;;;;;;;;5057639;28;20451;-91
2022/01/12 08:40:59;;;;;;;12.30;9.97;;;;;;;;;;5057888;28;20454;-88
2022/01/12 08:43:26;;;;;;;10.73;8.60;;;;;;;;;;5056870;28;20883;-91
2022/01/12 08:45:54;;;;;;;10.83;8.57;;;;;;;;;;5054398;28;20458;-90
2022/01/12 08:48:21;;;;;;;7.23;5.40;;;;;;;;;;5055275;28;20451;-92
2022/01/12 08:50:48;;;;;;;14.97;9.33;;;;;;;;;;5055085;28;20435;-90
2022/01/12 08:53:15;;;;;;;13.57;8.83;;;;;;;;;;5055908;28;20442;-92
2022/01/12 08:55:42;;;;;;;14.70;9.73;;;;;;;;;;5057294;28;20481;-87
2022/01/12 08:58:11;;;;;;;10.17;7.33;;;;;;;;;;5055674;28;20475;-92
2022/01/12 09:00:48;;;;;;;10.60;8.80;;;;;;;;;;5051337;28;20499;-90
2022/01/12 09:03:24;;;;;;;14.60;9.13;;;1.10;99.90;;;;;;5043984;28;20459;-89
2022/01/12 09:06:16;;;;;;;15.00;9.50;;;1.00;99.90;;;;;;5027884;28;20444;-89
2022/01/12 09:08:45;;;;;;;10.07;7.80;;;;;;;;;;5047904;28;20448;-88
2022/01/12 09:11:14;;;;;;;10.73;8.57;;;1.50;99.90;;;;;;5049631;28;20454;-89
2022/01/12 09:13:50;;;;;;;11.30;9.10;;;1.80;99.90;;;;;;5055005;28;20512;-88
2022/01/12 09:16:31;;;;;;;13.50;9.40;;;2.00;99.90;;;;;;5048923;28;20442;-89
2022/01/12 09:18:58;;;;;;;10.87;7.63;;;;;;;;;;5052351;28;20436;-88
2022/01/12 09:21:25;;;;;;;9.00;7.07;;;;;;;;;;5055064;23;20459;31
2022/01/12 09:23:58;;;;;;;2.80;1.80;;;;;;;;;;5064519;22;20514;-87
2022/01/12 09:26:25;;;;;;;5.30;3.33;;;;;;;;;;5065084;28;20443;-88
2022/01/12 09:28:54;;;;;;;10.07;6.43;;;0.40;99.90;;;;;;5072950;22;20482;-87
2022/01/12 09:31:23;;;;;;;8.80;4.10;;;;;;;;;;5075456;22;20487;-88
2022/01/12 09:33:54;;;;;;;9.60;7.87;;;;;;;;;;5078215;22;20501;-88
2022/01/12 09:36:22;;;;;;;9.53;6.70;;;;;;;;;;5074235;22;20487;-89
2022/01/12 09:38:50;;;;;;;7.50;6.33;;;1.00;99.90;;;;;;5059136;28;20447;-88
2022/01/12 09:41:17;;;;;;;11.50;5.93;;;;;;;;;;5038196;28;20456;-88
2022/01/12 09:43:45;;;;;;;9.43;7.23;;;;;;;;;;5040439;28;20456;-88
2022/01/12 09:46:16;;;;;;;10.93;7.00;;;2.80;99.90;;;;;;5046190;28;20534;-89
2022/01/12 09:48:44;;;;;;;7.40;5.93;;;;;;;;;;5045736;28;20471;-89
2022/01/12 09:51:11;;;;;;;9.00;6.60;;;;;;;;;;5041077;28;20451;-89
2022/01/12 09:53:41;;;;;;;8.47;6.27;;;2.60;99.90;;;;;;5039602;28;20444;-89
2022/01/12 09:56:20;;;;;;;7.90;6.00;;;2.30;99.90;;;;;;5045878;28;20480;-89
2022/01/12 09:58:50;;;;;;;7.37;6.60;;;;;;;;;;5046173;28;20480;-89
2022/01/12 10:01:27;;;;;;;8.63;6.63;;;4.10;99.90;;;;;;5048600;28;20535;-90
2022/01/12 10:03:58;;;;;;;8.10;6.80;;;;;;;;;;5044858;28;20451;-89
2022/01/12 10:06:26;;;;;;;8.30;6.13;;;;;;;;;;5044966;28;20463;-89
2022/01/12 10:08:55;;;;;;;7.70;6.30;;;3.50;99.90;;;;;;5066413;28;20931;-89
2022/01/12 10:11:22;;;;;;;7.07;5.40;;;;;;;;;;5066466;28;20447;-90
2022/01/12 10:14:01;;;;;;;8.73;6.60;;;3.60;99.90;;;;;;5070462;22;20416;-89
2022/01/12 10:16:30;;;;;;;7.57;6.03;;;4.80;99.90;;;;;;5064590;28;20455;-90
2022/01/12 10:18:59;;;;;;;9.70;6.80;;;5.20;99.90;;;;;;5073804;22;20578;-92
2022/01/12 10:21:34;;;;;;;9.33;7.17;;;5.50;99.90;;;;;;5058330;28;20446;-90
2022/01/12 10:24:05;;;;;;;9.23;6.90;;;5.70;99.90;;;;;;5056973;28;20820;-90
2022/01/12 10:26:37;;;;;;;8.53;7.00;;;5.60;99.90;;;;;;5058513;28;20452;-90
2022/01/12 10:29:17;;;;;;;7.70;6.83;;;4.70;99.90;;;;;;5034999;28;20528;-90
2022/01/12 10:34:49;;;;;;;9.50;6.47;;;4.90;99.90;;;;;;5044764;28;20454;-91
2022/01/12 10:37:19;;;;;;;8.73;7.27;;;5.50;99.90;;;;;;5042285;28;20460;-90
2022/01/12 10:39:48;;;;;;;8.50;7.50;;;6.00;99.70;;;;;;5039288;28;20459;-92
2022/01/12 10:42:18;;;;;;;8.30;6.90;;;6.30;99.30;;;;;;5044628;28;20555;-92
2022/01/12 10:44:47;;;;;;;7.17;6.47;;;5.90;99.20;;;;;;5037826;28;20500;-92
2022/01/12 10:47:20;;;;;;;8.20;7.10;;;5.20;99.90;;;;;;5038117;28;20451;-91
2022/01/12 10:50:00;;;;;;;12.73;8.03;;;4.90;99.90;;;;;;5040077;28;20922;-92
2022/01/12 10:52:30;;;;;;;10.33;8.10;;;4.50;99.90;;;;;;5041510;28;20464;-92
2022/01/12 10:54:59;;;;;;;8.30;7.50;;;5.10;99.90;;;;;;5040631;28;20457;-90
2022/01/12 10:57:28;;;;;;;8.03;7.23;;;5.80;99.90;;;;;;5033253;28;20459;-91
2022/01/12 11:00:18;;;;;;;8.37;7.57;;;6.00;99.90;;;;;;5038089;28;20478;-90
2022/01/12 11:02:49;;;;;;;8.37;7.40;;;5.80;99.90;;;;;;5041637;28;20952;-90
2022/01/12 11:05:18;;;;;;;12.23;9.13;;;6.00;99.90;;;;;;5039435;28;20494;-89
2022/01/12 11:07:45;;;;;;;8.97;8.07;;;;;;;;;;5032431;28;20447;-89
2022/01/12 11:10:12;;;;;;;11.23;8.53;;;;;;;;;;5038369;28;20458;-91
2022/01/12 11:12:40;;;;;;;8.90;7.80;;;;;;;;;;5036778;28;20859;-91
2022/01/12 11:15:09;;;;;;;8.57;7.60;;;6.30;99.40;;;;;;5043045;28;20539;-92
2022/01/12 11:17:38;;;;;;;8.27;7.47;;;;;;;;;;5036367;28;20460;-88
2022/01/12 11:20:12;;;;;;;9.60;7.97;;;7.50;99.90;;;;;;5033673;28;20495;-89
2022/01/12 11:22:50;;;;;;;8.47;7.70;;;6.30;99.90;;;;;;5037347;28;20436;-92
2022/01/12 11:25:19;;;;;;;9.80;8.70;;;6.60;98.50;;;;;;5036708;28;20493;-90
2022/01/12 11:27:51;;;;;;;9.37;8.33;;;;;;;;;;5036161;28;20972;-90
2022/01/12 11:30:20;;;;;;;9.40;8.43;;;6.80;99.90;;;;;;5037042;28;20943;-90
2022/01/12 11:32:56;;;;;;;9.73;8.30;;;7.20;98.70;;;;;;5033267;28;20487;-88
2022/01/12 11:35:28;;;;;;;10.73;8.73;;;6.80;97.10;;;;;;5035061;28;20442;-87
2022/01/12 11:37:59;;;;;;;10.27;8.37;;;6.50;99.90;;;;;;5046666;28;20455;-89
2022/01/12 11:40:38;;;;;;;10.83;8.83;;;6.30;99.90;;;;;;5024559;28;20532;-89
2022/01/12 11:43:22;;;;;;;10.47;9.00;;;6.80;98.10;;;;;;5011386;28;20445;-89
2022/01/12 11:46:04;;;;;;;11.90;10.40;;;6.90;98.90;;;;;;4978709;28;20488;-90
2022/01/12 11:48:32;;;;;;;11.60;9.40;;;;;;;;;;4996858;28;21022;-89
2022/01/12 11:51:01;;;;;;;11.83;10.50;;;;;;;;;;4996685;28;20446;-89
2022/01/12 11:53:30;;;;;;;12.37;10.37;;;;;;;;;;4997421;28;20455;-92
2022/01/12 11:56:10;;;;;;;10.70;9.60;;;8.30;95.90;;;;;;4995960;28;20456;-90
2022/01/12 11:58:37;;;;;;;15.87;12.10;;;;;;;;;;4999511;28;20473;-88
2022/01/12 12:01:14;;;;;;;13.90;11.73;;;7.50;95.50;;;;;;5001013;28;20502;-90
2022/01/12 12:03:42;;;;;;;11.50;10.30;;;;;;;;;;5020039;28;20448;-93
2022/01/12 12:06:21;;;;;;;14.93;11.97;;;7.50;96.40;;;;;;5021923;28;20487;-92
2022/01/12 12:09:00;;;;;;;17.30;11.60;;;;;;;;;;4999494;28;20499;-93
2022/01/12 12:11:30;;;;;;;15.47;11.10;;;;;;;;;;5003700;28;20459;-93
2022/01/12 12:14:09;;;;;;;12.03;10.53;;;7.00;96.90;;;;;;4998867;28;20545;-94
2022/01/12 12:16:37;;;;;;;15.10;11.90;;;7.20;96.50;;;;;;5002174;28;20458;-93
2022/01/12 12:19:06;;;;;;;12.43;9.93;;;6.90;96.70;;;;;;4997557;28;20509;-93
2022/01/12 12:21:35;;;;;;;9.17;7.60;;;;;;;;;;4993694;28;20446;-93
2022/01/12 12:24:11;;;;;;;12.97;10.70;;;;;;;;;;5001437;28;20441;-93
2022/01/12 12:26:51;;;;;;;15.13;10.33;;;6.30;98.80;;;;;;5017432;23;20588;-93
2022/01/12 12:29:26;;;;;;;16.67;11.60;;;6.30;98.50;;;;;;5023724;28;20445;-92
2022/01/12 12:31:58;;;;;;;16.20;11.47;;;;;;;;;;5017352;28;20452;-93
2022/01/12 12:34:27;;;;;;;15.27;10.00;;;6.20;98.50;;;;;;5016364;28;20453;-93
2022/01/12 12:37:00;;;;;;;15.47;12.20;;;;;;;;;;5021702;28;20459;-94
2022/01/12 12:39:34;;;;;;;22.27;14.80;;;6.10;98.90;;;;;;5019957;28;20461;-93
2022/01/12 12:42:01;;;;;;;12.17;8.63;;;;;;;;;;5022261;28;20457;-94
2022/01/12 12:44:30;;;;;;;11.73;9.57;;;6.70;96.90;;;;;;5013411;28;20453;-90
2022/01/12 12:47:08;;;;;;;13.30;9.53;;;6.40;98.00;;;;;;5020862;28;20489;-89
2022/01/12 12:49:39;;;;;;;11.13;8.50;;;6.30;97.60;;;;;;5021851;28;20526;-92
2022/01/12 12:52:07;;;;;;;11.00;9.70;;;6.70;97.80;;;;;;5020285;28;20743;-87
2022/01/12 12:54:35;;;;;;;11.53;10.30;;;;;;;;;;5019264;28;20453;-90
2022/01/12 12:57:11;;;;;;;17.67;13.50;;;;;;;;;;5020069;28;20941;-92
2022/01/12 12:59:38;;;;;;;16.63;10.80;;;;;;;;;;5021209;28;20451;-92
2022/01/12 13:02:14;;;;;;;10.73;9.33;;;;;;;;;;5022766;28;20684;-93
2022/01/12 13:07:27;;;;;;;14.80;9.57;;;;;;;;;;5024557;28;20455;-93
2022/01/12 13:10:07;;;;;;;12.20;9.87;;;;;;;;;;5025529;28;20445;-92
2022/01/12 13:12:39;;;;;;;15.90;10.00;;;6.10;98.70;;;;;;5024053;28;20792;-92
2022/01/12 13:15:10;;;;;;;12.60;9.97;;;6.50;98.30;;;;;;5024500;28;20461;-91
2022/01/12 13:17:40;;;;;;;14.80;11.17;;;;;;;;;;5027673;28;20457;-93
2022/01/12 13:23:10;;;;;;;14.87;10.47;;;7.10;97.80;;;;;;5036472;28;20468;-91
2022/01/12 13:25:39;;;;;;;13.43;11.57;;;;;;;;;;5025806;28;20497;-93
2022/01/12 13:28:06;;;;;;;14.50;10.30;;;;;;;;;;5020960;28;20496;-91
2022/01/12 13:30:36;;;;;;;11.77;10.30;;;;;;;;;;5028139;28;20437;-94
2022/01/12 13:33:14;;;;;;;13.63;10.53;;;7.50;97.20;;;;;;5028568;28;20461;-92
2022/01/12 13:35:43;;;;;;;12.67;10.10;;;;;;;;;;5026041;28;20528;-92
2022/01/12 13:38:16;;;;;;;11.97;10.60;;;;;;;;;;5025374;28;20418;-93
2022/01/12 13:43:26;;;;;;;12.37;10.20;;;;;;;;;;5039617;23;20468;-92
2022/01/12 13:46:12;;;;;;;15.87;10.23;;;7.30;96.00;;;;;;5020153;28;20482;-91
2022/01/12 13:48:52;;;;;;;13.07;9.47;;;7.10;97.10;;;;;;5028909;28;20417;-93
2022/01/12 13:51:25;;;;;;;11.40;9.60;;;;;;;;;;5024373;28;20433;-93
2022/01/12 13:54:05;;;;;;;10.90;9.40;;;7.20;96.40;;;;;;5009728;23;20484;-92
2022/01/12 13:56:41;;;;;;;10.80;9.20;;;6.30;97.20;;;;;;5023258;28;20429;-91
2022/01/12 13:59:18;;;;;;;11.53;9.70;;;5.90;98.60;;;;;;5026202;28;20441;-92
2022/01/12 14:01:46;;;;;;;11.50;10.17;;;;;;;;;;5020110;28;20456;-90
2022/01/12 14:04:19;;;;;;;14.13;10.80;;;;;;;;;;5024666;28;20439;-93
2022/01/12 14:06:52;;;;;;;11.07;9.10;;;5.60;97.90;;;;;;5024295;28;20492;-91
2022/01/12 14:09:29;;;;;;;11.03;9.60;;;6.10;98.30;;;;;;5020766;28;20476;-92
2022/01/12 14:11:57;;;;;;;12.57;10.20;;;6.20;98.50;;;;;;5020375;28;20515;-92
2022/01/12 14:14:26;;;;;;;12.63;9.53;;;;;;;;;;5017225;28;20433;-91
2022/01/12 14:16:53;;;;;;;13.57;9.47;;;;;;;;;;5020404;28;20437;-94
2022/01/12 14:19:21;;;;;;;10.77;9.43;;;;;;;;;;5016736;28;20449;-91
2022/01/12 14:21:55;;;;;;;12.20;9.63;;;6.60;97.40;;;;;;5020503;28;20448;-91
2022/01/12 14:24:27;;;;;;;13.63;9.90;;;;;;;;;;5019689;28;20471;-93
2022/01/12 14:26:54;;;;;;;16.07;10.40;;;;;;;;;;5019601;28;20518;-92
2022/01/12 14:29:21;;;;;;;11.47;9.37;;;6.60;98.20;;;;;;5018797;28;20436;-91
2022/01/12 14:31:48;;;;;;;14.30;10.30;;;;;;;;;;5018345;28;20455;-93
2022/01/12 14:34:16;;;;;;;13.77;10.17;;;;;;;;;;5014907;28;20806;-93
2022/01/12 14:36:43;;;;;;;12.37;10.37;;;;;;;;;;5018824;28;20827;-92
2022/01/12 14:39:11;;;;;;;15.17;10.80;;;;;;;;;;5019071;28;20499;-92
2022/01/12 14:41:40;;;;;;;12.03;9.20;;;;;;;;;;5020643;28;20458;-91
2022/01/12 14:44:08;;;;;;;14.67;10.30;;;;;;;;;;5022142;28;20445;-92
2022/01/12 14:46:38;;;;;;;12.00;9.57;;;;;;;;;;5022039;28;20484;-91
2022/01/12 14:49:05;;;;;;;15.13;11.13;;;;;;;;;;5024540;28;20449;-93
2022/01/12 14:51:32;;;;;;;11.20;8.83;;;;;;;;;;5020977;28;20464;-91
2022/01/12 14:54:00;;;;;;;16.83;11.13;;;;;;;;;;5007288;28;20576;-93
2022/01/12 14:56:27;;;;;;;22.93;11.03;;;;;;;;;;4999555;28;20803;-90
2022/01/12 14:58:55;;;;;;;14.00;10.80;;;;;;;;;;5003233;28;20457;-90
2022/01/12 15:01:23;;;;;;;10.77;9.57;;;;;;;;;;4947005;29;20460;-91
2022/01/12 15:03:54;;;;;;;13.33;10.13;;;;;;;;;;4947581;29;20448;-91
2022/01/12 15:06:22;;;;;;;14.97;10.63;;;;;;;;;;4945340;29;20502;-92
2022/01/12 15:08:49;;;;;;;11.17;9.30;;;;;;;;;;4944497;29;20968;-90
2022/01/12 15:11:19;;;;;;;14.50;11.47;;;;;;;;;;4944432;29;20972;-93
2022/01/12 15:13:56;;;;;;;14.77;11.60;;;;;;;;;;4942131;29;20464;-91
2022/01/12 15:16:26;;;;;;;16.20;12.40;;;;;;;;;;4885323;29;20447;-90
2022/01/12 15:19:02;;;;;;;14.90;11.27;;;2.40;99.90;;;;;;4896609;29;20463;-91
2022/01/12 15:21:29;;;;;;;15.97;12.90;;;;;;;;;;4943452;29;20441;-92